createdAt,value
2022-09-10T00:01:05.747Z,982.7
2022-09-10T00:03:07.592Z,982.6
2022-09-10T00:05:08.581Z,982.6
2022-09-10T00:07:10.111Z,982.7
2022-09-10T00:09:11.315Z,982.7
2022-09-10T00:11:12.484Z,982.6
2022-09-10T00:13:14.147Z,982.6
2022-09-10T00:15:15.403Z,982.6
2022-09-10T00:17:17.116Z,982.7
2022-09-10T00:19:18.861Z,982.6
2022-09-10T00:21:20.638Z,982.6
2022-09-10T00:23:22.389Z,982.6
2022-09-10T00:25:23.867Z,982.7
2022-09-10T00:27:24.826Z,982.6
2022-09-10T00:29:26.594Z,982.7
2022-09-10T00:31:28.021Z,982.6
2022-09-10T00:33:29.307Z,982.6
2022-09-10T00:35:30.272Z,982.6
2022-09-10T00:37:31.755Z,982.6
2022-09-10T00:40:17.163Z,982.6
2022-09-10T00:42:18.168Z,982.6
2022-09-10T00:44:19.909Z,982.6
2022-09-10T00:46:21.282Z,982.5
2022-09-10T00:48:22.707Z,982.5
2022-09-10T00:50:23.916Z,982.6
2022-09-10T00:52:25.483Z,982.6
2022-09-10T00:54:26.899Z,982.5
2022-09-10T00:56:28.159Z,982.6
2022-09-10T00:58:29.428Z,982.6
2022-09-10T01:00:30.626Z,982.6
2022-09-10T01:02:32.149Z,982.6
2022-09-10T01:04:33.194Z,982.5
2022-09-10T01:06:34.084Z,982.6
2022-09-10T01:08:35.950Z,982.6
2022-09-10T01:10:36.956Z,982.5
2022-09-10T01:12:38.701Z,982.6
2022-09-10T01:14:40.518Z,982.6
2022-09-10T01:16:41.985Z,982.5
2022-09-10T01:18:43.769Z,982.5
2022-09-10T01:20:44.762Z,982.4
2022-09-10T01:22:46.180Z,982.4
2022-09-10T01:24:47.429Z,982.4
2022-09-10T01:26:48.844Z,982.4
2022-09-10T01:28:50.763Z,982.5
2022-09-10T01:30:52.137Z,982.4
2022-09-10T01:32:53.666Z,982.4
2022-09-10T01:34:55.573Z,982.4
2022-09-10T01:38:58.478Z,982.4
2022-09-10T01:40:59.843Z,982.4
2022-09-10T01:43:00.969Z,982.4
2022-09-10T01:45:02.333Z,982.5
2022-09-10T01:51:06.402Z,982.3
2022-09-10T01:53:08.082Z,982.3
2022-09-10T01:55:09.530Z,982.4
2022-09-10T01:57:10.792Z,982.3
2022-09-10T01:59:12.041Z,982.4
2022-09-10T02:01:13.965Z,982.5
2022-09-10T02:03:14.838Z,982.4
2022-09-10T02:05:16.364Z,982.4
2022-09-10T02:07:17.942Z,982.4
2022-09-10T02:09:18.926Z,982.3
2022-09-10T02:11:20.343Z,982.3
2022-09-10T02:13:22.054Z,982.3
2022-09-10T02:15:23.479Z,982.4
2022-09-10T02:19:25.671Z,982.3
2022-09-10T02:21:26.840Z,982.4
2022-09-10T02:23:28.356Z,982.3
2022-09-10T02:25:29.576Z,982.3
2022-09-10T02:27:31.386Z,982.2
2022-09-10T02:29:32.911Z,982.3
2022-09-10T02:31:33.965Z,982.3
2022-09-10T02:33:35.460Z,982.2
2022-09-10T02:37:38.272Z,982.3
2022-09-10T02:39:39.964Z,982.2
2022-09-10T02:41:41.834Z,982.3
2022-09-10T02:43:42.713Z,982.3
2022-09-10T02:45:44.590Z,982.3
2022-09-10T02:47:46.342Z,982.4
2022-09-10T02:51:49.464Z,982.3
2022-09-10T02:53:51.234Z,982.3
2022-09-10T02:55:52.644Z,982.3
2022-09-10T02:57:53.608Z,982.3
2022-09-10T02:59:55.410Z,982.4
2022-09-10T03:01:56.651Z,982.2
2022-09-10T03:03:58.492Z,982.3
2022-09-10T03:06:00.348Z,982.3
2022-09-10T03:08:01.778Z,982.2
2022-09-10T03:10:02.717Z,982.3
2022-09-10T03:12:03.863Z,982.3
2022-09-10T03:14:05.214Z,982.3
2022-09-10T03:16:06.765Z,982.3
2022-09-10T03:20:09.195Z,982.3
2022-09-10T03:22:10.828Z,982.2
2022-09-10T03:24:15.218Z,982.2
2022-09-10T03:26:14.018Z,982.1
2022-09-10T03:28:15.336Z,982.1
2022-09-10T03:30:16.707Z,982.2
2022-09-10T03:32:18.081Z,982.2
2022-09-10T03:36:21.214Z,982.2
2022-09-10T03:38:22.172Z,982.2
2022-09-10T03:40:23.423Z,982.2
2022-09-10T03:42:24.489Z,982.2
2022-09-10T03:44:26.307Z,982.1
2022-09-10T03:46:27.834Z,982.1
2022-09-10T03:48:29.707Z,982.1
2022-09-10T03:50:30.885Z,982.2
2022-09-10T03:52:32.606Z,982.2
2022-09-10T03:56:34.698Z,982.2
2022-09-10T03:58:36.535Z,982.2
2022-09-10T04:00:37.838Z,982.3
2022-09-10T04:02:39.419Z,982.1
2022-09-10T04:04:40.383Z,982.2
2022-09-10T04:06:42.259Z,982.2
2022-09-10T04:08:43.398Z,982.2
2022-09-10T04:10:45.141Z,982.3
2022-09-10T04:12:46.364Z,982.3
2022-09-10T04:14:48.016Z,982.3
2022-09-10T04:16:49.709Z,982.3
2022-09-10T04:18:50.670Z,982.3
2022-09-10T04:20:52.249Z,982.3
2022-09-10T04:22:53.992Z,982.3
2022-09-10T04:24:55.258Z,982.4
2022-09-10T04:26:57.092Z,982.4
2022-09-10T04:28:58.345Z,982.4
2022-09-10T04:31:00.231Z,982.4
2022-09-10T04:33:01.833Z,982.4
2022-09-10T04:35:03.245Z,982.4
2022-09-10T04:37:04.952Z,982.4
2022-09-10T04:39:06.036Z,982.4
2022-09-10T04:41:07.486Z,982.4
2022-09-10T04:45:10.784Z,982.5
2022-09-10T04:47:12.093Z,982.5
2022-09-10T04:49:13.416Z,982.5
2022-09-10T04:51:16.719Z,982.5
2022-09-10T04:53:16.426Z,982.5
2022-09-10T04:55:18.112Z,982.5
2022-09-10T04:57:19.299Z,982.5
2022-09-10T04:59:21.183Z,982.5
2022-09-10T05:01:22.639Z,982.5
2022-09-10T05:03:24.461Z,982.5
2022-09-10T05:05:34.786Z,982.6
2022-09-10T05:07:27.308Z,982.6
2022-09-10T05:09:29.041Z,982.5
2022-09-10T05:11:30.168Z,982.5
2022-09-10T05:13:31.461Z,982.5
2022-09-10T05:15:32.388Z,982.5
2022-09-10T05:17:33.584Z,982.5
2022-09-10T05:19:34.980Z,982.6
2022-09-10T05:21:36.651Z,982.6
2022-09-10T05:23:37.750Z,982.6
2022-09-10T05:25:39.342Z,982.5
2022-09-10T05:27:40.859Z,982.6
2022-09-10T05:29:42.370Z,982.6
2022-09-10T05:31:43.404Z,982.5
2022-09-10T05:33:44.933Z,982.6
2022-09-10T05:35:45.899Z,982.6
2022-09-10T05:37:47.399Z,982.5
2022-09-10T05:39:48.810Z,982.5
2022-09-10T05:43:51.540Z,982.4
2022-09-10T05:45:52.532Z,982.5
2022-09-10T05:47:53.883Z,982.5
2022-09-10T05:49:55.726Z,982.5
2022-09-10T05:51:57.280Z,982.6
2022-09-10T05:53:58.387Z,982.6
2022-09-10T05:56:00.211Z,982.5
2022-09-10T05:58:02.055Z,982.5
2022-09-10T06:00:03.914Z,982.6
2022-09-10T06:02:05.724Z,982.6
2022-09-10T06:04:07.107Z,982.6
2022-09-10T06:06:08.445Z,982.6
2022-09-10T06:08:09.682Z,982.6
2022-09-10T06:10:11.048Z,982.6
2022-09-10T06:12:12.145Z,982.6
2022-09-10T06:14:13.912Z,982.6
2022-09-10T06:16:15.443Z,982.6
2022-09-10T06:18:16.570Z,982.7
2022-09-10T06:20:17.949Z,982.8
2022-09-10T06:22:19.102Z,982.7
2022-09-10T06:24:20.429Z,982.8
2022-09-10T06:26:21.784Z,982.8
2022-09-10T06:28:23.608Z,982.8
2022-09-10T06:30:25.172Z,982.9
2022-09-10T06:32:26.398Z,982.9
2022-09-10T06:34:27.426Z,982.8
2022-09-10T06:36:29.048Z,982.8
2022-09-10T06:38:29.932Z,982.8
2022-09-10T06:40:31.797Z,982.9
2022-09-10T06:42:33.576Z,982.8
2022-09-10T06:44:34.908Z,982.8
2022-09-10T06:47:19.894Z,982.8
2022-09-10T06:48:39.517Z,982.8
2022-09-10T06:52:41.006Z,982.8
2022-09-10T06:54:42.615Z,982.9
2022-09-10T06:56:44.353Z,982.9
2022-09-10T06:58:45.522Z,982.8
2022-09-10T07:02:48.065Z,982.9
2022-09-10T07:04:49.141Z,982.9
2022-09-10T07:06:50.784Z,982.9
2022-09-10T07:08:52.212Z,982.9
2022-09-10T07:10:53.392Z,983
2022-09-10T07:12:54.997Z,982.9
2022-09-10T07:14:56.308Z,983
2022-09-10T07:16:57.884Z,982.9
2022-09-10T07:18:59.112Z,982.9
2022-09-10T07:21:00.303Z,982.9
2022-09-10T07:23:01.272Z,983
2022-09-10T07:25:46.135Z,983
2022-09-10T07:27:47.920Z,983
2022-09-10T07:29:49.026Z,983.1
2022-09-10T07:31:50.683Z,983
2022-09-10T07:33:52.295Z,983.1
2022-09-10T07:35:53.994Z,983
2022-09-10T07:37:55.482Z,983.1
2022-09-10T07:39:56.723Z,983.2
2022-09-10T07:41:57.682Z,983.2
2022-09-10T07:43:59.236Z,983.2
2022-09-10T07:46:04.052Z,983.2
2022-09-10T07:48:02.640Z,983.2
2022-09-10T07:50:04.156Z,983.2
2022-09-10T07:52:05.359Z,983.3
2022-09-10T07:54:06.850Z,983.3
2022-09-10T07:56:08.206Z,983.2
2022-09-10T07:58:09.793Z,983.2
2022-09-10T08:02:11.969Z,983.4
2022-09-10T08:04:12.899Z,983.4
2022-09-10T08:06:14.044Z,983.3
2022-09-10T08:08:15.717Z,983.4
2022-09-10T08:10:16.853Z,983.4
2022-09-10T08:12:18.409Z,983.4
2022-09-10T08:14:19.418Z,983.4
2022-09-10T08:16:21.300Z,983.4
2022-09-10T08:18:22.831Z,983.4
2022-09-10T08:20:23.977Z,983.5
2022-09-10T08:22:25.014Z,983.5
2022-09-10T08:24:26.582Z,983.4
2022-09-10T08:28:29.368Z,983.5
2022-09-10T08:30:31.134Z,983.5
2022-09-10T08:32:32.294Z,983.5
2022-09-10T08:34:33.271Z,983.5
2022-09-10T08:36:35.088Z,983.5
2022-09-10T08:38:36.559Z,983.5
2022-09-10T08:40:38.168Z,983.5
2022-09-10T08:44:40.953Z,983.4
2022-09-10T08:46:42.272Z,983.5
2022-09-10T08:48:43.251Z,983.4
2022-09-10T08:50:44.211Z,983.5
2022-09-10T08:52:45.275Z,983.6
2022-09-10T08:54:46.261Z,983.5
2022-09-10T08:58:49.237Z,983.6
2022-09-10T09:00:50.121Z,983.5
2022-09-10T09:02:51.058Z,983.5
2022-09-10T09:04:52.261Z,983.6
2022-09-10T09:06:53.701Z,983.6
2022-09-10T09:08:55.192Z,983.6
2022-09-10T09:10:56.180Z,983.5
2022-09-10T09:13:06.999Z,983.5
2022-09-10T09:14:59.632Z,983.5
2022-09-10T09:19:02.977Z,983.5
2022-09-10T09:21:04.005Z,983.7
2022-09-10T09:23:05.029Z,983.7
2022-09-10T09:25:06.177Z,983.6
2022-09-10T09:27:07.200Z,983.6
2022-09-10T09:29:08.661Z,983.6
2022-09-10T09:31:09.954Z,983.6
2022-09-10T09:33:11.150Z,983.6
2022-09-10T09:35:12.953Z,983.5
2022-09-10T09:37:14.372Z,983.5
2022-09-10T09:39:16.084Z,983.6
2022-09-10T09:41:17.184Z,983.5
2022-09-10T09:43:18.740Z,983.6
2022-09-10T09:45:19.626Z,983.6
2022-09-10T09:47:20.626Z,983.5
2022-09-10T09:49:21.735Z,983.6
2022-09-10T09:51:22.907Z,983.6
2022-09-10T09:53:24.277Z,983.6
2022-09-10T09:55:25.374Z,983.5
2022-09-10T09:57:26.544Z,983.6
2022-09-10T09:59:28.213Z,983.6
2022-09-10T10:01:29.981Z,983.5
2022-09-10T10:03:31.062Z,983.5
2022-09-10T10:05:31.970Z,983.4
2022-09-10T10:07:33.764Z,983.5
2022-09-10T10:09:34.999Z,983.4
2022-09-10T10:11:35.873Z,983.4
2022-09-10T10:13:36.818Z,983.4
2022-09-10T10:15:38.153Z,983.3
2022-09-10T10:19:41.130Z,983.3
2022-09-10T10:21:42.320Z,983.3
2022-09-10T10:23:43.844Z,983.3
2022-09-10T10:25:45.390Z,983.3
2022-09-10T10:27:46.554Z,983.3
2022-09-10T10:29:47.871Z,983.3
2022-09-10T10:31:48.977Z,983.2
2022-09-10T10:33:50.180Z,983.3
2022-09-10T10:35:51.596Z,983.2
2022-09-10T10:39:54.350Z,983.2
2022-09-10T10:43:57.336Z,983.1
2022-09-10T10:45:58.289Z,983.2
2022-09-10T10:47:59.403Z,983.1
2022-09-10T10:50:01.275Z,983.1
2022-09-10T10:52:02.388Z,983.2
2022-09-10T10:54:03.447Z,983.2
2022-09-10T10:56:04.873Z,983.2
2022-09-10T10:58:05.728Z,983.1
2022-09-10T11:00:07.216Z,983.1
2022-09-10T11:02:08.175Z,983.2
2022-09-10T11:04:08.941Z,983.2
2022-09-10T11:06:10.693Z,983.1
2022-09-10T11:08:11.983Z,983
2022-09-10T11:10:13.114Z,983
2022-09-10T11:16:18.142Z,983.1
2022-09-10T11:18:19.927Z,983
2022-09-10T11:20:28.791Z,983
2022-09-10T11:22:22.268Z,983
2022-09-10T11:24:23.811Z,983
2022-09-10T11:26:24.868Z,982.9
2022-09-10T11:28:26.344Z,983
2022-09-10T11:30:27.453Z,983
2022-09-10T11:32:28.888Z,982.9
2022-09-10T11:34:30.167Z,983
2022-09-10T11:36:31.782Z,982.8
2022-09-10T11:38:33.392Z,982.8
2022-09-10T11:40:35.495Z,982.9
2022-09-10T11:42:36.303Z,983
2022-09-10T11:44:37.319Z,982.9
2022-09-10T11:46:38.986Z,982.9
2022-09-10T11:48:39.937Z,982.9
2022-09-10T11:52:42.973Z,982.9
2022-09-10T11:54:44.629Z,983
2022-09-10T11:56:45.789Z,983
2022-09-10T11:58:47.246Z,983
2022-09-10T12:00:48.633Z,982.9
2022-09-10T12:02:49.822Z,982.9
2022-09-10T12:04:51.146Z,982.9
2022-09-10T12:06:52.345Z,982.9
2022-09-10T12:10:55.187Z,982.8
2022-09-10T12:12:56.115Z,982.8
2022-09-10T12:14:57.327Z,982.9
2022-09-10T12:16:58.465Z,982.9
2022-09-10T12:18:59.369Z,983
2022-09-10T12:21:00.485Z,983
2022-09-10T12:23:01.860Z,982.9
2022-09-10T12:25:03.660Z,983
2022-09-10T12:27:04.952Z,983
2022-09-10T12:29:06.075Z,982.8
2022-09-10T12:33:08.465Z,983
2022-09-10T12:35:10.033Z,982.9
2022-09-10T12:37:10.978Z,982.9
2022-09-10T12:39:12.281Z,982.9
2022-09-10T12:41:13.941Z,982.8
2022-09-10T12:43:15.356Z,982.8
2022-09-10T12:45:16.420Z,982.7
2022-09-10T12:47:18.221Z,982.8
2022-09-10T12:49:19.847Z,982.8
2022-09-10T12:51:20.972Z,982.8
2022-09-10T12:53:22.117Z,982.7
2022-09-10T12:55:23.427Z,982.7
2022-09-10T12:57:24.825Z,982.7
2022-09-10T12:59:26.091Z,982.7
2022-09-10T13:01:27.729Z,982.6
2022-09-10T13:03:29.093Z,982.7
2022-09-10T13:05:30.036Z,982.8
2022-09-10T13:07:30.902Z,982.7
2022-09-10T13:09:32.663Z,982.5
2022-09-10T13:11:33.710Z,982.5
2022-09-10T13:13:35.346Z,982.6
2022-09-10T13:15:37.841Z,982.6
2022-09-10T13:17:39.342Z,982.6
2022-09-10T13:19:40.585Z,982.7
2022-09-10T13:21:41.991Z,982.6
2022-09-10T13:23:43.604Z,982.7
2022-09-10T13:25:45.310Z,982.7
2022-09-10T13:27:46.338Z,982.6
2022-09-10T13:29:48.122Z,982.7
2022-09-10T13:31:49.391Z,982.6
2022-09-10T13:33:50.427Z,982.7
2022-09-10T13:35:51.444Z,982.6
2022-09-10T13:37:52.718Z,982.6
2022-09-10T13:39:54.899Z,982.7
2022-09-10T13:41:55.822Z,982.7
2022-09-10T13:44:00.622Z,982.7
2022-09-10T13:45:59.400Z,982.8
2022-09-10T13:48:00.189Z,982.6
2022-09-10T13:50:01.805Z,982.6
2022-09-10T13:52:03.185Z,982.6
2022-09-10T13:54:04.689Z,982.6
2022-09-10T13:56:06.015Z,982.6
2022-09-10T13:58:07.276Z,982.5
2022-09-10T14:00:08.456Z,982.5
2022-09-10T14:02:09.454Z,982.5
2022-09-10T14:04:10.871Z,982.5
2022-09-10T14:06:12.063Z,982.5
2022-09-10T14:08:13.320Z,982.5
2022-09-10T14:10:58.090Z,982.6
2022-09-10T14:12:59.106Z,982.6
2022-09-10T14:15:00.724Z,982.5
2022-09-10T14:17:01.686Z,982.5
2022-09-10T14:19:03.082Z,982.6
2022-09-10T14:21:03.673Z,982.5
2022-09-10T14:23:04.731Z,982.5
2022-09-10T14:25:06.048Z,982.5
2022-09-10T14:27:07.598Z,982.5
2022-09-10T14:29:08.722Z,982.6
2022-09-10T14:31:09.700Z,982.6
2022-09-10T14:33:10.829Z,982.6
2022-09-10T14:35:12.403Z,982.5
2022-09-10T14:37:13.661Z,982.6
2022-09-10T14:39:14.704Z,982.5
2022-09-10T14:41:15.761Z,982.5
2022-09-10T14:43:18.310Z,982.4
2022-09-10T14:45:19.363Z,982.6
2022-09-10T14:47:21.119Z,982.5
2022-09-10T14:49:22.598Z,982.6
2022-09-10T14:51:23.906Z,982.7
2022-09-10T14:53:25.669Z,982.6
2022-09-10T14:55:27.066Z,982.7
2022-09-10T14:57:28.125Z,982.7
2022-09-10T14:59:30.042Z,982.8
2022-09-10T15:01:30.976Z,982.8
2022-09-10T15:03:32.202Z,982.7
2022-09-10T15:05:33.929Z,982.9
2022-09-10T15:07:35.354Z,982.9
2022-09-10T15:09:36.547Z,982.9
2022-09-10T15:11:38.010Z,982.9
2022-09-10T15:13:38.951Z,982.9
2022-09-10T15:15:40.291Z,982.9
2022-09-10T15:17:41.828Z,982.9
2022-09-10T15:19:43.087Z,983
2022-09-10T15:21:44.478Z,983
2022-09-10T15:23:46.024Z,982.9
2022-09-10T15:25:47.382Z,982.9
2022-09-10T15:27:48.613Z,982.9
2022-09-10T15:29:50.237Z,983
2022-09-10T15:31:51.710Z,982.9
2022-09-10T15:33:53.411Z,982.9
2022-09-10T15:37:56.550Z,982.7
2022-09-10T15:39:58.395Z,982.8
2022-09-10T15:41:59.747Z,982.7
2022-09-10T15:44:01.115Z,982.8
2022-09-10T15:46:02.772Z,982.7
2022-09-10T15:48:03.764Z,982.7
2022-09-10T15:50:05.573Z,982.7
2022-09-10T15:54:07.840Z,982.6
2022-09-10T15:56:09.156Z,982.5
2022-09-10T15:58:10.511Z,982.6
2022-09-10T16:00:11.667Z,982.5
2022-09-10T16:02:13.630Z,982.5
2022-09-10T16:04:15.147Z,982.5
2022-09-10T16:06:16.724Z,982.6
2022-09-10T16:08:17.861Z,982.6
2022-09-10T16:10:18.939Z,982.5
2022-09-10T16:12:20.019Z,982.6
2022-09-10T16:14:21.766Z,982.7
2022-09-10T16:16:22.797Z,982.7
2022-09-10T16:18:24.200Z,982.7
2022-09-10T16:20:25.581Z,982.7
2022-09-10T16:22:26.991Z,982.8
2022-09-10T16:24:28.042Z,982.8
2022-09-10T16:26:29.295Z,982.7
2022-09-10T16:28:30.550Z,982.8
2022-09-10T16:30:33.251Z,982.8
2022-09-10T16:32:34.846Z,982.8
2022-09-10T16:36:37.223Z,982.9
2022-09-10T16:38:39.034Z,982.9
2022-09-10T16:40:40.740Z,982.8
2022-09-10T16:42:42.157Z,982.8
2022-09-10T16:44:43.327Z,982.8
2022-09-10T16:46:44.502Z,982.9
2022-09-10T16:48:46.244Z,983
2022-09-10T16:50:47.455Z,983
2022-09-10T16:52:48.952Z,983.1
2022-09-10T16:54:50.082Z,983.1
2022-09-10T16:56:51.459Z,983.1
2022-09-10T16:58:52.967Z,983.1
2022-09-10T17:00:54.641Z,983.1
2022-09-10T17:02:55.634Z,983.1
2022-09-10T17:04:57.405Z,983
2022-09-10T17:06:58.985Z,983.1
2022-09-10T17:09:00.697Z,983.2
2022-09-10T17:11:02.511Z,983.2
2022-09-10T17:13:04.290Z,983.2
2022-09-10T17:15:06.154Z,983.1
2022-09-10T17:17:07.514Z,983.1
2022-09-10T17:19:08.876Z,983
2022-09-10T17:21:10.508Z,983
2022-09-10T17:23:11.678Z,983
2022-09-10T17:25:12.968Z,983
2022-09-10T17:27:14.671Z,983
2022-09-10T17:29:16.379Z,983
2022-09-10T17:31:18.259Z,983.1
2022-09-10T17:33:19.965Z,983
2022-09-10T17:35:20.831Z,983.1
2022-09-10T17:37:21.782Z,983
2022-09-10T17:39:22.876Z,983.1
2022-09-10T17:41:24.695Z,983.1
2022-09-10T17:43:27.452Z,983.1
2022-09-10T17:45:28.875Z,983.1
2022-09-10T17:47:28.775Z,983.1
2022-09-10T17:49:30.310Z,983.1
2022-09-10T17:53:32.438Z,983.2
2022-09-10T17:55:33.957Z,983.3
2022-09-10T17:57:34.882Z,983.3
2022-09-10T18:01:37.427Z,983.3
2022-09-10T18:03:38.681Z,983.4
2022-09-10T18:05:40.380Z,983.3
2022-09-10T18:07:41.968Z,983.3
2022-09-10T18:09:43.236Z,983.4
2022-09-10T18:11:44.287Z,983.4
2022-09-10T18:13:45.740Z,983.4
2022-09-10T18:17:48.717Z,983.4
2022-09-10T18:19:50.021Z,983.5
2022-09-10T18:21:51.586Z,983.4
2022-09-10T18:23:53.414Z,983.5
2022-09-10T18:25:54.550Z,983.5
2022-09-10T18:27:55.556Z,983.4
2022-09-10T18:29:57.386Z,983.4
2022-09-10T18:31:58.595Z,983.4
2022-09-10T18:33:59.816Z,983.4
2022-09-10T18:36:01.102Z,983.5
2022-09-10T18:38:02.879Z,983.4
2022-09-10T18:40:04.258Z,983.4
2022-09-10T18:42:05.289Z,983.5
2022-09-10T18:44:07.034Z,983.5
2022-09-10T18:46:08.584Z,983.5
2022-09-10T18:48:10.339Z,983.4
2022-09-10T18:50:12.290Z,983.5
2022-09-10T18:52:13.388Z,983.5
2022-09-10T18:54:14.496Z,983.4
2022-09-10T18:56:16.213Z,983.5
2022-09-10T18:58:17.951Z,983.5
2022-09-10T19:00:19.096Z,983.5
2022-09-10T19:02:20.222Z,983.4
2022-09-10T19:04:30.606Z,983.4
2022-09-10T19:06:23.414Z,983.5
2022-09-10T19:08:24.967Z,983.5
2022-09-10T19:10:26.425Z,983.5
2022-09-10T19:12:27.447Z,983.5
2022-09-10T19:14:28.385Z,983.6
2022-09-10T19:16:30.092Z,983.5
2022-09-10T19:18:31.825Z,983.5
2022-09-10T19:20:33.490Z,983.6
2022-09-10T19:22:34.642Z,983.5
2022-09-10T19:24:53.826Z,983.6
2022-09-10T19:26:46.259Z,983.6
2022-09-10T19:28:38.622Z,983.6
2022-09-10T19:30:39.872Z,983.6
2022-09-10T19:32:41.559Z,983.7
2022-09-10T19:34:42.621Z,983.7
2022-09-10T19:36:44.150Z,983.6
2022-09-10T19:38:45.427Z,983.6
2022-09-10T19:40:46.817Z,983.7
2022-09-10T19:42:48.112Z,983.6
2022-09-10T19:44:49.820Z,983.6
2022-09-10T19:46:50.993Z,983.6
2022-09-10T19:48:52.709Z,983.6
2022-09-10T19:50:53.660Z,983.6
2022-09-10T19:52:55.051Z,983.5
2022-09-10T19:54:56.135Z,983.6
2022-09-10T19:56:57.984Z,983.6
2022-09-10T19:58:59.260Z,983.6
2022-09-10T20:03:02.005Z,983.6
2022-09-10T20:05:03.526Z,983.5
2022-09-10T20:07:05.392Z,983.5
2022-09-10T20:09:06.790Z,983.6
2022-09-10T20:11:08.377Z,983.6
2022-09-10T20:13:09.865Z,983.6
2022-09-10T20:15:11.431Z,983.6
2022-09-10T20:17:12.744Z,983.7
2022-09-10T20:21:15.660Z,983.7
2022-09-10T20:23:16.883Z,983.6
2022-09-10T20:25:17.878Z,983.6
2022-09-10T20:27:18.761Z,983.6
2022-09-10T20:29:19.931Z,983.6
2022-09-10T20:31:20.988Z,983.6
2022-09-10T20:33:21.945Z,983.6
2022-09-10T20:35:22.886Z,983.6
2022-09-10T20:37:24.266Z,983.6
2022-09-10T20:39:25.374Z,983.8
2022-09-10T20:41:26.266Z,983.7
2022-09-10T20:43:27.554Z,983.7
2022-09-10T20:45:28.892Z,983.7
2022-09-10T20:47:30.332Z,983.7
2022-09-10T20:49:31.567Z,983.8
2022-09-10T20:51:33.259Z,983.8
2022-09-10T20:53:34.395Z,983.6
2022-09-10T20:56:44.874Z,983.7
2022-09-10T20:58:45.988Z,983.6
2022-09-10T21:00:47.683Z,983.5
2022-09-10T21:02:49.277Z,983.7
2022-09-10T21:04:50.685Z,983.7
2022-09-10T21:06:52.489Z,983.7
2022-09-10T21:08:53.685Z,983.6
2022-09-10T21:10:54.579Z,983.7
2022-09-10T21:12:56.123Z,983.7
2022-09-10T21:14:57.918Z,983.6
2022-09-10T21:16:59.332Z,983.8
2022-09-10T21:19:00.402Z,983.8
2022-09-10T21:21:02.164Z,983.8
2022-09-10T21:23:03.383Z,983.8
2022-09-10T21:25:04.550Z,983.8
2022-09-10T21:29:07.670Z,983.7
2022-09-10T21:31:09.567Z,983.7
2022-09-10T21:33:11.127Z,983.8
2022-09-10T21:35:12.680Z,983.8
2022-09-10T21:39:14.886Z,983.7
2022-09-10T21:41:16.160Z,983.8
2022-09-10T21:43:17.481Z,983.9
2022-09-10T21:45:21.442Z,983.8
2022-09-10T21:47:20.594Z,983.8
2022-09-10T21:49:22.172Z,983.9
2022-09-10T21:51:23.245Z,983.9
2022-09-10T21:53:24.430Z,983.8
2022-09-10T21:55:26.159Z,983.9
2022-09-10T21:57:26.660Z,983.9
2022-09-10T21:59:27.875Z,983.9
2022-09-10T22:01:29.634Z,983.8
2022-09-10T22:03:30.970Z,983.9
2022-09-10T22:05:32.612Z,983.9
2022-09-10T22:07:33.856Z,983.8
2022-09-10T22:09:35.382Z,983.7
2022-09-10T22:11:36.822Z,983.8
2022-09-10T22:13:38.334Z,983.7
2022-09-10T22:15:39.702Z,983.7
2022-09-10T22:17:40.996Z,983.8
2022-09-10T22:19:42.773Z,983.8
2022-09-10T22:21:43.932Z,983.7
2022-09-10T22:23:45.404Z,983.8
2022-09-10T22:27:48.048Z,983.8
2022-09-10T22:29:49.157Z,983.8
2022-09-10T22:33:51.616Z,983.7
2022-09-10T22:35:52.792Z,983.8
2022-09-10T22:37:54.577Z,983.7
2022-09-10T22:39:56.298Z,983.8
2022-09-10T22:43:59.220Z,983.8
2022-09-10T22:46:00.138Z,983.8
2022-09-10T22:48:01.122Z,983.7
2022-09-10T22:50:02.036Z,983.7
2022-09-10T22:52:03.462Z,983.8
2022-09-10T22:54:04.952Z,983.7
2022-09-10T22:56:06.547Z,983.7
2022-09-10T22:58:08.392Z,983.8
2022-09-10T23:00:09.342Z,983.7
2022-09-10T23:02:10.765Z,983.7
2022-09-10T23:04:11.996Z,983.8
2022-09-10T23:06:13.304Z,983.8
2022-09-10T23:08:14.357Z,983.7
2022-09-10T23:10:15.317Z,983.8
2022-09-10T23:12:16.476Z,983.7
2022-09-10T23:14:18.161Z,983.8
2022-09-10T23:16:19.348Z,983.8
2022-09-10T23:18:21.211Z,983.8
2022-09-10T23:20:22.742Z,983.7
2022-09-10T23:22:24.387Z,983.8
2022-09-10T23:24:26.108Z,983.8
2022-09-10T23:26:27.658Z,983.8
2022-09-10T23:28:29.547Z,983.8
2022-09-10T23:30:30.579Z,983.8
2022-09-10T23:32:31.933Z,983.8
2022-09-10T23:34:33.536Z,983.8
2022-09-10T23:36:35.390Z,983.8
2022-09-10T23:38:36.805Z,983.8
2022-09-10T23:40:38.015Z,983.7
2022-09-10T23:42:39.141Z,983.8
2022-09-10T23:44:40.713Z,983.7
2022-09-10T23:46:42.521Z,983.8
2022-09-10T23:48:43.456Z,983.7
2022-09-10T23:52:45.599Z,983.8
2022-09-10T23:54:47.099Z,983.7
2022-09-10T23:56:48.333Z,983.8
2022-09-10T23:58:49.464Z,983.7
